createdAt,value
2023-03-06T00:00:58.000Z,89.56
2023-03-06T00:01:58.000Z,89.66
2023-03-06T00:02:58.000Z,89.66
2023-03-06T00:03:58.000Z,89.76
2023-03-06T00:04:58.000Z,89.87
2023-03-06T00:05:58.000Z,89.76
2023-03-06T00:06:58.000Z,89.76
2023-03-06T00:07:58.000Z,89.87
2023-03-06T00:08:58.000Z,89.87
2023-03-06T00:09:58.000Z,89.87
2023-03-06T00:10:58.000Z,89.87
2023-03-06T00:11:58.000Z,89.98
2023-03-06T00:12:58.000Z,90.08
2023-03-06T00:13:58.000Z,90.12
2023-03-06T00:14:58.000Z,90.01
2023-03-06T00:15:58.000Z,90.01
2023-03-06T00:16:58.000Z,89.98
2023-03-06T00:17:58.000Z,90.01
2023-03-06T00:18:58.000Z,90.08
2023-03-06T00:19:58.000Z,90.08
2023-03-06T00:20:58.000Z,90.19
2023-03-06T00:21:58.000Z,90.08
2023-03-06T00:22:58.000Z,90.19
2023-03-06T00:23:58.000Z,90.22
2023-03-06T00:24:58.000Z,90.22
2023-03-06T00:25:58.000Z,90.22
2023-03-06T00:26:58.000Z,90.22
2023-03-06T00:27:58.000Z,90.22
2023-03-06T00:28:58.000Z,90.33
2023-03-06T00:29:58.000Z,90.44
2023-03-06T00:30:57.000Z,90.33
2023-03-06T00:31:57.000Z,90.33
2023-03-06T00:32:57.000Z,90.22
2023-03-06T00:33:57.000Z,90.33
2023-03-06T00:34:57.000Z,90.33
2023-03-06T00:35:57.000Z,90.33
2023-03-06T00:36:57.000Z,90.33
2023-03-06T00:37:57.000Z,90.33
2023-03-06T00:38:57.000Z,90.33
2023-03-06T00:39:57.000Z,90.44
2023-03-06T00:40:57.000Z,90.44
2023-03-06T00:41:57.000Z,90.44
2023-03-06T00:42:57.000Z,90.44
2023-03-06T00:43:57.000Z,90.44
2023-03-06T00:44:57.000Z,90.44
2023-03-06T00:45:57.000Z,90.44
2023-03-06T00:46:57.000Z,90.33
2023-03-06T00:47:57.000Z,90.44
2023-03-06T00:48:57.000Z,90.44
2023-03-06T00:49:57.000Z,90.54
2023-03-06T00:50:57.000Z,90.64
2023-03-06T00:51:57.000Z,90.64
2023-03-06T00:52:57.000Z,90.75
2023-03-06T00:53:57.000Z,90.64
2023-03-06T00:54:57.000Z,90.64
2023-03-06T00:55:57.000Z,90.75
2023-03-06T00:56:57.000Z,90.85
2023-03-06T00:57:57.000Z,90.85
2023-03-06T00:58:57.000Z,90.85
2023-03-06T00:59:57.000Z,90.85
2023-03-06T01:00:57.000Z,90.95
2023-03-06T01:01:57.000Z,90.95
2023-03-06T01:02:57.000Z,91.06
2023-03-06T01:03:57.000Z,90.95
2023-03-06T01:04:57.000Z,90.95
2023-03-06T01:05:57.000Z,90.95
2023-03-06T01:06:57.000Z,90.95
2023-03-06T01:07:57.000Z,90.95
2023-03-06T01:08:57.000Z,91.06
2023-03-06T01:09:57.000Z,91.06
2023-03-06T01:10:57.000Z,91.10
2023-03-06T01:11:57.000Z,91.10
2023-03-06T01:12:57.000Z,91.16
2023-03-06T01:13:57.000Z,91.20
2023-03-06T01:14:57.000Z,91.16
2023-03-06T01:15:57.000Z,91.16
2023-03-06T01:16:57.000Z,91.06
2023-03-06T01:17:57.000Z,91.10
2023-03-06T01:18:57.000Z,91.06
2023-03-06T01:19:57.000Z,91.06
2023-03-06T01:20:57.000Z,91.10
2023-03-06T01:21:57.000Z,91.06
2023-03-06T01:22:57.000Z,91.20
2023-03-06T01:23:57.000Z,91.16
2023-03-06T01:24:57.000Z,91.06
2023-03-06T01:25:57.000Z,91.27
2023-03-06T01:26:57.000Z,91.27
2023-03-06T01:27:56.000Z,91.16
2023-03-06T01:28:56.000Z,91.06
2023-03-06T01:29:56.000Z,90.95
2023-03-06T01:30:56.000Z,90.95
2023-03-06T01:31:56.000Z,90.95
2023-03-06T01:32:56.000Z,90.95
2023-03-06T01:33:56.000Z,90.95
2023-03-06T01:34:56.000Z,90.85
2023-03-06T01:35:56.000Z,90.75
2023-03-06T01:36:56.000Z,90.75
2023-03-06T01:37:56.000Z,90.64
2023-03-06T01:38:56.000Z,90.64
2023-03-06T01:39:56.000Z,90.54
2023-03-06T01:40:56.000Z,90.44
2023-03-06T01:41:56.000Z,90.54
2023-03-06T01:42:56.000Z,90.54
2023-03-06T01:43:56.000Z,90.54
2023-03-06T01:44:56.000Z,90.54
2023-03-06T01:45:56.000Z,90.44
2023-03-06T01:46:56.000Z,90.47
2023-03-06T01:47:56.000Z,90.47
2023-03-06T01:48:56.000Z,90.44
2023-03-06T01:49:56.000Z,90.37
2023-03-06T01:50:56.000Z,90.33
2023-03-06T01:51:56.000Z,90.37
2023-03-06T01:52:56.000Z,90.37
2023-03-06T01:53:56.000Z,90.37
2023-03-06T01:54:56.000Z,90.33
2023-03-06T01:55:56.000Z,90.47
2023-03-06T01:56:56.000Z,90.47
2023-03-06T01:57:56.000Z,90.37
2023-03-06T01:58:56.000Z,90.37
2023-03-06T01:59:56.000Z,90.47
2023-03-06T02:00:56.000Z,90.47
2023-03-06T02:01:56.000Z,90.37
2023-03-06T02:02:56.000Z,90.37
2023-03-06T02:03:56.000Z,90.47
2023-03-06T02:04:56.000Z,90.47
2023-03-06T02:05:56.000Z,90.47
2023-03-06T02:06:56.000Z,90.47
2023-03-06T02:07:56.000Z,90.58
2023-03-06T02:08:56.000Z,90.47
2023-03-06T02:09:56.000Z,90.58
2023-03-06T02:10:56.000Z,90.68
2023-03-06T02:11:56.000Z,90.58
2023-03-06T02:12:56.000Z,90.58
2023-03-06T02:13:56.000Z,90.58
2023-03-06T02:14:56.000Z,90.58
2023-03-06T02:15:56.000Z,90.62
2023-03-06T02:16:56.000Z,90.72
2023-03-06T02:17:56.000Z,90.72
2023-03-06T02:18:56.000Z,90.68
2023-03-06T02:19:56.000Z,90.72
2023-03-06T02:20:56.000Z,90.72
2023-03-06T02:21:56.000Z,90.62
2023-03-06T02:22:56.000Z,90.62
2023-03-06T02:23:56.000Z,90.58
2023-03-06T02:24:56.000Z,90.52
2023-03-06T02:25:56.000Z,90.37
2023-03-06T02:26:56.000Z,90.37
2023-03-06T02:27:56.000Z,90.26
2023-03-06T02:28:56.000Z,90.16
2023-03-06T02:29:56.000Z,90.16
2023-03-06T02:30:56.000Z,89.95
2023-03-06T02:31:55.000Z,89.95
2023-03-06T02:32:55.000Z,89.95
2023-03-06T02:33:55.000Z,89.85
2023-03-06T02:34:55.000Z,89.85
2023-03-06T02:35:55.000Z,89.75
2023-03-06T02:36:55.000Z,89.75
2023-03-06T02:37:55.000Z,89.85
2023-03-06T02:38:55.000Z,89.75
2023-03-06T02:39:55.000Z,89.85
2023-03-06T02:40:55.000Z,89.85
2023-03-06T02:41:55.000Z,89.75
2023-03-06T02:42:55.000Z,89.85
2023-03-06T02:43:55.000Z,89.85
2023-03-06T02:44:55.000Z,89.85
2023-03-06T02:45:55.000Z,89.95
2023-03-06T02:46:55.000Z,89.95
2023-03-06T02:47:55.000Z,90.00
2023-03-06T02:48:55.000Z,90.00
2023-03-06T02:49:55.000Z,89.95
2023-03-06T02:50:55.000Z,89.95
2023-03-06T02:51:55.000Z,89.95
2023-03-06T02:52:55.000Z,89.95
2023-03-06T02:53:55.000Z,89.95
2023-03-06T02:54:55.000Z,89.95
2023-03-06T02:55:55.000Z,89.85
2023-03-06T02:56:55.000Z,89.75
2023-03-06T02:57:55.000Z,89.64
2023-03-06T02:58:55.000Z,89.64
2023-03-06T02:59:55.000Z,89.64
2023-03-06T03:00:55.000Z,89.54
2023-03-06T03:01:55.000Z,89.54
2023-03-06T03:02:55.000Z,89.43
2023-03-06T03:03:55.000Z,89.43
2023-03-06T03:04:55.000Z,89.32
2023-03-06T03:05:55.000Z,89.32
2023-03-06T03:06:55.000Z,89.43
2023-03-06T03:07:55.000Z,89.22
2023-03-06T03:08:55.000Z,89.01
2023-03-06T03:09:55.000Z,88.91
2023-03-06T03:10:55.000Z,88.91
2023-03-06T03:11:55.000Z,89.01
2023-03-06T03:12:55.000Z,89.01
2023-03-06T03:13:55.000Z,88.91
2023-03-06T03:14:55.000Z,88.91
2023-03-06T03:15:55.000Z,88.91
2023-03-06T03:16:55.000Z,89.01
2023-03-06T03:17:55.000Z,89.12
2023-03-06T03:18:55.000Z,89.12
2023-03-06T03:19:55.000Z,89.12
2023-03-06T03:20:55.000Z,89.22
2023-03-06T03:21:55.000Z,89.32
2023-03-06T03:22:55.000Z,89.43
2023-03-06T03:23:55.000Z,89.32
2023-03-06T03:24:55.000Z,89.43
2023-03-06T03:25:55.000Z,89.43
2023-03-06T03:26:55.000Z,89.54
2023-03-06T03:27:55.000Z,89.54
2023-03-06T03:28:55.000Z,89.64
2023-03-06T03:29:55.000Z,89.54
2023-03-06T03:30:55.000Z,89.64
2023-03-06T03:31:55.000Z,89.64
2023-03-06T03:32:55.000Z,89.75
2023-03-06T03:33:55.000Z,89.89
2023-03-06T03:34:55.000Z,89.89
2023-03-06T03:35:54.000Z,90.00
2023-03-06T03:36:54.000Z,90.00
2023-03-06T03:37:54.000Z,90.10
2023-03-06T03:45:12.000Z,90.52
2023-03-06T03:45:12.000Z,90.52
2023-03-06T03:46:12.000Z,90.62
2023-03-06T03:47:12.000Z,90.62
2023-03-06T03:48:12.000Z,90.72
2023-03-06T03:49:12.000Z,90.77
2023-03-06T03:50:12.000Z,90.87
2023-03-06T03:51:12.000Z,90.97
2023-03-06T03:52:12.000Z,90.97
2023-03-06T03:53:12.000Z,90.97
2023-03-06T03:54:12.000Z,91.08
2023-03-06T03:55:12.000Z,91.08
2023-03-06T03:56:12.000Z,91.18
2023-03-06T03:57:12.000Z,91.29
2023-03-06T03:58:12.000Z,91.29
2023-03-06T04:10:48.000Z,91.60
2023-03-06T04:10:48.000Z,91.71
2023-03-06T04:11:48.000Z,91.71
2023-03-06T04:12:48.000Z,91.71
2023-03-06T04:13:48.000Z,91.91
2023-03-06T04:14:48.000Z,91.85
2023-03-06T04:15:48.000Z,91.85
2023-03-06T04:16:48.000Z,91.91
2023-03-06T04:17:48.000Z,91.81
2023-03-06T04:18:48.000Z,91.85
2023-03-06T04:26:05.000Z,91.81
2023-03-06T04:26:05.000Z,91.81
2023-03-06T04:27:05.000Z,91.96
2023-03-06T04:28:05.000Z,91.96
2023-03-06T04:29:05.000Z,91.96
2023-03-06T04:36:24.000Z,91.96
2023-03-06T04:36:24.000Z,92.06
2023-03-06T04:37:24.000Z,92.06
2023-03-06T04:38:24.000Z,91.91
2023-03-06T04:39:24.000Z,91.85
2023-03-06T04:40:24.000Z,91.85
2023-03-06T04:41:24.000Z,91.75
2023-03-06T04:42:24.000Z,91.75
2023-03-06T04:43:24.000Z,91.85
2023-03-06T04:44:24.000Z,91.85
2023-03-06T04:51:41.000Z,92.06
2023-03-06T04:51:41.000Z,91.96
2023-03-06T04:52:41.000Z,91.96
2023-03-06T04:53:41.000Z,91.96
2023-03-06T04:54:41.000Z,91.96
2023-03-06T04:55:41.000Z,91.96
2023-03-06T04:56:41.000Z,91.96
2023-03-06T04:57:41.000Z,92.06
2023-03-06T04:58:41.000Z,92.16
2023-03-06T04:59:41.000Z,92.16
2023-03-06T05:00:41.000Z,92.21
2023-03-06T05:01:41.000Z,92.21
2023-03-06T05:02:41.000Z,92.31
2023-03-06T05:03:41.000Z,92.31
2023-03-06T05:04:41.000Z,92.31
2023-03-06T05:05:41.000Z,92.31
2023-03-06T05:06:41.000Z,92.41
2023-03-06T05:07:41.000Z,92.52
2023-03-06T05:08:41.000Z,92.52
2023-03-06T05:09:41.000Z,92.63
2023-03-06T05:10:41.000Z,92.63
2023-03-06T05:11:41.000Z,92.63
2023-03-06T05:12:41.000Z,92.63
2023-03-06T05:13:41.000Z,92.73
2023-03-06T05:14:41.000Z,92.77
2023-03-06T05:15:41.000Z,92.88
2023-03-06T05:16:41.000Z,92.88
2023-03-06T05:17:41.000Z,92.88
2023-03-06T05:18:41.000Z,92.88
2023-03-06T05:19:41.000Z,92.98
2023-03-06T05:20:41.000Z,92.98
2023-03-06T05:21:41.000Z,93.19
2023-03-06T05:22:41.000Z,93.19
2023-03-06T05:23:41.000Z,93.40
2023-03-06T05:24:41.000Z,93.50
2023-03-06T05:25:41.000Z,93.50
2023-03-06T05:26:41.000Z,93.50
2023-03-06T05:27:41.000Z,93.50
2023-03-06T05:28:41.000Z,93.50
2023-03-06T05:29:41.000Z,93.61
2023-03-06T05:30:41.000Z,93.65
2023-03-06T05:31:41.000Z,93.65
2023-03-06T05:32:41.000Z,93.65
2023-03-06T05:33:41.000Z,93.65
2023-03-06T05:34:41.000Z,93.76
2023-03-06T05:35:41.000Z,93.76
2023-03-06T05:36:41.000Z,93.86
2023-03-06T05:37:41.000Z,93.96
2023-03-06T05:38:41.000Z,93.96
2023-03-06T05:39:41.000Z,93.96
2023-03-06T05:40:41.000Z,93.96
2023-03-06T05:41:41.000Z,94.07
2023-03-06T05:42:41.000Z,94.07
2023-03-06T05:43:41.000Z,94.07
2023-03-06T05:44:41.000Z,94.17
2023-03-06T05:45:41.000Z,94.38
2023-03-06T05:46:41.000Z,94.49
2023-03-06T05:47:41.000Z,94.49
2023-03-06T05:48:41.000Z,94.34
2023-03-06T05:49:41.000Z,94.23
2023-03-06T05:50:41.000Z,94.02
2023-03-06T05:51:41.000Z,93.92
2023-03-06T05:52:41.000Z,93.71
2023-03-06T05:53:41.000Z,93.50
2023-03-06T05:54:41.000Z,93.35
2023-03-06T05:55:41.000Z,93.25
2023-03-06T05:56:41.000Z,93.29
2023-03-06T05:57:41.000Z,93.25
2023-03-06T05:58:41.000Z,93.25
2023-03-06T05:59:41.000Z,93.15
2023-03-06T06:00:41.000Z,93.04
2023-03-06T06:01:41.000Z,93.04
2023-03-06T06:02:41.000Z,92.83
2023-03-06T06:03:42.000Z,92.83
2023-03-06T06:04:42.000Z,92.83
2023-03-06T06:05:42.000Z,92.63
2023-03-06T06:06:42.000Z,92.63
2023-03-06T06:07:42.000Z,92.63
2023-03-06T06:08:42.000Z,92.41
2023-03-06T06:09:42.000Z,92.41
2023-03-06T06:10:42.000Z,92.31
2023-03-06T06:11:42.000Z,92.21
2023-03-06T06:12:42.000Z,92.21
2023-03-06T06:13:42.000Z,92.10
2023-03-06T06:14:42.000Z,92.10
2023-03-06T06:15:42.000Z,92.10
2023-03-06T06:16:42.000Z,92.10
2023-03-06T06:17:42.000Z,92.10
2023-03-06T06:18:42.000Z,92.21
2023-03-06T06:19:42.000Z,92.21
2023-03-06T06:20:42.000Z,92.10
2023-03-06T06:21:42.000Z,92.10
2023-03-06T06:22:42.000Z,92.10
2023-03-06T06:23:42.000Z,92.10
2023-03-06T06:24:42.000Z,92.10
2023-03-06T06:25:42.000Z,92.21
2023-03-06T06:26:42.000Z,92.31
2023-03-06T06:27:42.000Z,92.31
2023-03-06T06:28:42.000Z,92.31
2023-03-06T06:29:42.000Z,92.21
2023-03-06T06:30:42.000Z,92.00
2023-03-06T06:31:42.000Z,91.89
2023-03-06T06:32:42.000Z,92.00
2023-03-06T06:33:42.000Z,92.16
2023-03-06T06:34:42.000Z,92.10
2023-03-06T06:35:42.000Z,91.85
2023-03-06T06:35:42.000Z,91.85
2023-03-06T06:35:42.000Z,91.85
2023-03-06T06:36:42.000Z,91.75
2023-03-06T06:36:42.000Z,91.75
2023-03-06T06:36:42.000Z,91.75
2023-03-06T06:37:42.000Z,91.75
2023-03-06T06:37:42.000Z,91.75
2023-03-06T06:37:42.000Z,91.75
2023-03-06T06:38:42.000Z,91.75
2023-03-06T06:38:42.000Z,91.75
2023-03-06T06:38:42.000Z,91.75
2023-03-06T06:39:42.000Z,91.85
2023-03-06T06:39:42.000Z,91.85
2023-03-06T06:39:42.000Z,91.85
2023-03-06T06:40:42.000Z,91.96
2023-03-06T06:40:42.000Z,91.96
2023-03-06T06:41:42.000Z,91.85
2023-03-06T06:41:42.000Z,91.85
2023-03-06T06:42:42.000Z,91.75
2023-03-06T06:42:42.000Z,91.75
2023-03-06T06:43:42.000Z,91.85
2023-03-06T06:43:42.000Z,91.85
2023-03-06T06:44:42.000Z,91.75
2023-03-06T06:44:42.000Z,91.75
2023-03-06T06:45:42.000Z,91.54
2023-03-06T06:46:42.000Z,91.54
2023-03-06T06:47:42.000Z,91.54
2023-03-06T06:48:42.000Z,91.54
2023-03-06T06:49:42.000Z,91.54
2023-03-06T06:50:42.000Z,91.43
2023-03-06T06:51:42.000Z,91.54
2023-03-06T06:52:42.000Z,91.43
2023-03-06T06:53:42.000Z,91.33
2023-03-06T06:54:42.000Z,91.12
2023-03-06T06:55:42.000Z,91.22
2023-03-06T06:56:42.000Z,91.33
2023-03-06T06:57:42.000Z,91.22
2023-03-06T06:58:42.000Z,91.22
2023-03-06T06:59:42.000Z,91.18
2023-03-06T07:00:42.000Z,91.33
2023-03-06T07:01:42.000Z,91.29
2023-03-06T07:02:42.000Z,91.50
2023-03-06T07:03:42.000Z,91.50
2023-03-06T07:04:42.000Z,91.29
2023-03-06T07:05:42.000Z,91.39
2023-03-06T07:06:42.000Z,91.39
2023-03-06T07:07:42.000Z,91.39
2023-03-06T07:08:42.000Z,91.39
2023-03-06T07:09:42.000Z,91.39
2023-03-06T07:10:42.000Z,91.50
2023-03-06T07:11:42.000Z,91.50
2023-03-06T07:12:42.000Z,91.39
2023-03-06T07:13:42.000Z,91.29
2023-03-06T07:14:42.000Z,91.08
2023-03-06T07:22:00.000Z,91.71
2023-03-06T07:22:00.000Z,91.60
2023-03-06T07:23:00.000Z,91.66
2023-03-06T07:24:00.000Z,91.71
2023-03-06T07:25:00.000Z,91.71
2023-03-06T07:26:00.000Z,91.81
2023-03-06T07:27:00.000Z,92.02
2023-03-06T07:28:00.000Z,92.08
2023-03-06T07:29:00.000Z,92.22
2023-03-06T07:30:00.000Z,92.22
2023-03-06T07:37:18.000Z,93.02
2023-03-06T07:37:18.000Z,93.23
2023-03-06T07:38:18.000Z,93.37
2023-03-06T07:39:18.000Z,93.48
2023-03-06T07:40:18.000Z,93.59
2023-03-06T07:41:18.000Z,93.90
2023-03-06T07:42:18.000Z,94.10
2023-03-06T07:43:18.000Z,94.31
2023-03-06T07:44:18.000Z,94.52
2023-03-06T07:45:18.000Z,94.63
2023-03-06T07:46:18.000Z,94.63
2023-03-06T07:47:18.000Z,94.84
2023-03-06T07:48:18.000Z,94.94
2023-03-06T07:49:18.000Z,95.15
2023-03-06T07:50:18.000Z,95.25
2023-03-06T07:51:18.000Z,95.46
2023-03-06T07:52:18.000Z,95.73
2023-03-06T07:53:18.000Z,95.73
2023-03-06T07:54:18.000Z,95.52
2023-03-06T07:55:18.000Z,95.62
2023-03-06T08:34:23.000Z,98.82
2023-03-06T08:34:23.000Z,98.92
2023-03-06T08:35:23.000Z,98.92
2023-03-06T08:36:23.000Z,98.92
2023-03-06T08:37:23.000Z,98.92
2023-03-06T09:16:28.000Z,98.52
2023-03-06T09:16:28.000Z,98.41
2023-03-06T09:17:28.000Z,98.10
2023-03-06T09:18:28.000Z,97.78
2023-03-06T09:19:28.000Z,97.72
2023-03-06T09:20:28.000Z,97.68
2023-03-06T09:21:28.000Z,97.68
2023-03-06T09:22:28.000Z,97.68
2023-03-06T09:23:28.000Z,97.89
2023-03-06T09:24:28.000Z,97.78
2023-03-06T09:25:28.000Z,97.58
2023-03-06T09:26:28.000Z,97.64
2023-03-06T09:27:28.000Z,97.43
2023-03-06T09:28:28.000Z,97.12
2023-03-06T09:29:28.000Z,96.70
2023-03-06T09:36:46.000Z,96.14
2023-03-06T09:36:46.000Z,95.93
2023-03-06T09:37:46.000Z,95.51
2023-03-06T09:38:46.000Z,95.09
2023-03-06T09:39:46.000Z,95.36
2023-03-06T09:40:46.000Z,95.05
2023-03-06T09:41:46.000Z,94.64
2023-03-06T09:42:46.000Z,94.74
2023-03-06T09:43:46.000Z,94.80
2023-03-06T09:44:46.000Z,94.80
2023-03-06T09:45:46.000Z,94.38
2023-03-06T09:46:46.000Z,92.76
2023-03-06T09:47:46.000Z,92.24
2023-03-06T09:48:46.000Z,92.24
2023-03-06T09:49:46.000Z,92.82
2023-03-06T09:50:46.000Z,93.24
2023-03-06T09:51:46.000Z,93.55
2023-03-06T09:52:46.000Z,93.45
2023-03-06T09:53:46.000Z,93.51
2023-03-06T09:54:46.000Z,93.10
2023-03-06T09:55:46.000Z,92.47
2023-03-06T09:56:46.000Z,91.64
2023-03-06T09:57:46.000Z,91.64
2023-03-06T09:58:46.000Z,91.74
2023-03-06T09:59:46.000Z,92.01
2023-03-06T10:00:46.000Z,92.22
2023-03-06T10:01:45.000Z,92.11
2023-03-06T10:02:45.000Z,92.11
2023-03-06T10:03:45.000Z,90.87
2023-03-06T10:04:45.000Z,90.35
2023-03-06T10:05:45.000Z,90.72
2023-03-06T10:06:45.000Z,90.41
2023-03-06T10:07:45.000Z,90.20
2023-03-06T10:08:45.000Z,89.37
2023-03-06T10:09:45.000Z,90.17
2023-03-06T10:10:45.000Z,89.75
2023-03-06T10:11:45.000Z,88.09
2023-03-06T10:12:45.000Z,89.03
2023-03-06T10:13:45.000Z,88.61
2023-03-06T10:14:45.000Z,89.96
2023-03-06T10:15:45.000Z,89.34
2023-03-06T10:16:45.000Z,88.09
2023-03-06T10:17:45.000Z,87.57
2023-03-06T10:18:45.000Z,87.68
2023-03-06T10:19:45.000Z,88.30
2023-03-06T10:20:45.000Z,88.20
2023-03-06T10:21:45.000Z,88.40
2023-03-06T10:22:45.000Z,88.40
2023-03-06T10:23:45.000Z,88.92
2023-03-06T10:24:45.000Z,88.71
2023-03-06T10:25:45.000Z,88.92
2023-03-06T10:26:45.000Z,89.03
2023-03-06T10:27:45.000Z,89.44
2023-03-06T10:28:45.000Z,89.34
2023-03-06T10:29:45.000Z,90.06
2023-03-06T10:30:45.000Z,90.06
2023-03-06T10:31:45.000Z,90.27
2023-03-06T10:32:45.000Z,89.34
2023-03-06T10:33:45.000Z,89.75
2023-03-06T10:34:45.000Z,89.54
2023-03-06T10:35:45.000Z,89.44
2023-03-06T10:36:45.000Z,89.54
2023-03-06T10:37:45.000Z,89.65
2023-03-06T10:38:45.000Z,89.54
2023-03-06T10:39:45.000Z,88.92
2023-03-06T10:40:45.000Z,88.67
2023-03-06T10:41:45.000Z,88.92
2023-03-06T10:42:45.000Z,89.03
2023-03-06T10:43:45.000Z,88.82
2023-03-06T10:44:45.000Z,88.71
2023-03-06T10:45:45.000Z,87.99
2023-03-06T10:46:45.000Z,88.13
2023-03-06T10:47:45.000Z,88.34
2023-03-06T10:48:45.000Z,89.06
2023-03-06T10:49:45.000Z,89.89
2023-03-06T10:50:45.000Z,90.27
2023-03-06T10:51:44.000Z,90.06
2023-03-06T10:52:44.000Z,89.75
2023-03-06T10:53:44.000Z,89.54
2023-03-06T10:54:44.000Z,89.96
2023-03-06T10:55:44.000Z,89.34
2023-03-06T10:56:44.000Z,89.44
2023-03-06T10:57:44.000Z,89.75
2023-03-06T10:58:44.000Z,90.06
2023-03-06T10:59:44.000Z,90.48
2023-03-06T11:00:44.000Z,90.37
2023-03-06T11:01:44.000Z,89.58
2023-03-06T11:02:44.000Z,88.54
2023-03-06T11:03:44.000Z,89.69
2023-03-06T11:04:44.000Z,90.72
2023-03-06T11:05:44.000Z,90.69
2023-03-06T11:06:44.000Z,89.27
2023-03-06T11:07:44.000Z,88.92
2023-03-06T11:08:44.000Z,88.82
2023-03-06T11:09:44.000Z,88.82
2023-03-06T11:10:44.000Z,88.82
2023-03-06T11:11:44.000Z,89.09
2023-03-06T11:12:44.000Z,89.71
2023-03-06T11:13:44.000Z,88.36
2023-03-06T11:14:44.000Z,89.15
2023-03-06T11:15:44.000Z,89.04
2023-03-06T11:16:44.000Z,88.42
2023-03-06T11:17:44.000Z,87.80
2023-03-06T11:18:44.000Z,88.42
2023-03-06T11:19:44.000Z,88.79
2023-03-06T11:20:44.000Z,88.90
2023-03-06T11:21:44.000Z,87.66
2023-03-06T11:22:44.000Z,86.83
2023-03-06T11:23:44.000Z,86.99
2023-03-06T11:24:44.000Z,85.13
2023-03-06T11:25:44.000Z,85.38
2023-03-06T11:26:44.000Z,85.58
2023-03-06T11:27:44.000Z,84.86
2023-03-06T11:28:44.000Z,84.13
2023-03-06T11:29:44.000Z,84.75
2023-03-06T11:30:44.000Z,83.51
2023-03-06T11:31:43.000Z,83.62
2023-03-06T11:32:43.000Z,84.13
2023-03-06T11:33:43.000Z,83.62
2023-03-06T11:34:43.000Z,83.93
2023-03-06T11:35:43.000Z,83.41
2023-03-06T11:36:43.000Z,84.13
2023-03-06T11:37:43.000Z,84.13
2023-03-06T11:38:43.000Z,83.10
2023-03-06T11:39:43.000Z,82.27
2023-03-06T11:40:43.000Z,83.00
2023-03-06T11:41:43.000Z,82.17
2023-03-06T11:42:43.000Z,81.65
2023-03-06T11:43:43.000Z,82.06
2023-03-06T11:44:43.000Z,83.41
2023-03-06T11:45:43.000Z,82.89
2023-03-06T11:46:43.000Z,82.89
2023-03-06T11:47:43.000Z,83.10
2023-03-06T11:48:43.000Z,82.89
2023-03-06T11:49:43.000Z,82.65
2023-03-06T11:50:43.000Z,81.82
2023-03-06T11:51:43.000Z,81.71
2023-03-06T11:52:43.000Z,82.23
2023-03-06T11:53:43.000Z,80.78
2023-03-06T11:54:43.000Z,80.88
2023-03-06T11:55:43.000Z,80.05
2023-03-06T11:56:43.000Z,80.36
2023-03-06T11:57:43.000Z,79.85
2023-03-06T11:58:43.000Z,79.71
2023-03-06T11:59:43.000Z,80.05
2023-03-06T12:00:43.000Z,79.95
2023-03-06T12:01:43.000Z,80.16
2023-03-06T12:02:43.000Z,80.26
2023-03-06T12:03:43.000Z,79.13
2023-03-06T12:04:42.000Z,80.51
2023-03-06T12:05:42.000Z,80.71
2023-03-06T12:06:42.000Z,81.54
2023-03-06T12:07:42.000Z,84.03
2023-03-06T12:08:42.000Z,84.65
2023-03-06T12:09:42.000Z,84.65
2023-03-06T12:10:42.000Z,83.24
2023-03-06T12:11:42.000Z,81.23
2023-03-06T12:12:42.000Z,79.92
2023-03-06T12:13:42.000Z,80.75
2023-03-06T12:14:42.000Z,81.58
2023-03-06T12:15:42.000Z,82.41
2023-03-06T12:16:42.000Z,83.45
2023-03-06T12:17:42.000Z,84.59
2023-03-06T12:18:42.000Z,85.56
2023-03-06T12:19:42.000Z,86.18
2023-03-06T12:20:42.000Z,86.60
2023-03-06T12:21:42.000Z,87.12
2023-03-06T12:22:42.000Z,87.22
2023-03-06T12:23:42.000Z,87.95
2023-03-06T12:24:42.000Z,88.51
2023-03-06T12:25:42.000Z,89.52
2023-03-06T12:26:42.000Z,91.58
2023-03-06T12:27:42.000Z,93.60
2023-03-06T12:28:42.000Z,94.89
2023-03-06T12:29:42.000Z,96.03
2023-03-06T12:30:42.000Z,97.01
2023-03-06T12:31:42.000Z,97.64
2023-03-06T12:32:42.000Z,97.99
2023-03-06T12:33:42.000Z,98.31
2023-03-06T12:34:42.000Z,98.56
2023-03-06T12:35:42.000Z,98.66
2023-03-06T12:36:42.000Z,98.87
2023-03-06T12:37:42.000Z,99.14
2023-03-06T12:38:42.000Z,99.40
2023-03-06T12:39:42.000Z,99.45
2023-03-06T12:40:42.000Z,99.66
2023-03-06T12:41:42.000Z,99.35
2023-03-06T12:42:42.000Z,99.24
2023-03-06T12:43:41.000Z,99.30
2023-03-06T12:44:41.000Z,99.41
2023-03-06T12:45:41.000Z,99.62
2023-03-06T12:46:41.000Z,99.46
2023-03-06T12:47:41.000Z,98.74
2023-03-06T12:48:41.000Z,98.01
2023-03-06T12:49:41.000Z,97.70
2023-03-06T12:50:41.000Z,97.70
2023-03-06T12:51:41.000Z,97.96
2023-03-06T12:52:41.000Z,98.17
2023-03-06T12:53:41.000Z,98.27
2023-03-06T12:54:41.000Z,97.75
2023-03-06T12:55:41.000Z,97.50
2023-03-06T12:55:41.000Z,97.50
2023-03-06T12:56:41.000Z,96.98
2023-03-06T12:56:41.000Z,96.98
2023-03-06T12:57:41.000Z,96.15
2023-03-06T12:57:41.000Z,96.15
2023-03-06T12:58:41.000Z,96.15
2023-03-06T12:58:41.000Z,96.15
2023-03-06T12:59:41.000Z,95.53
2023-03-06T12:59:41.000Z,95.53
2023-03-06T13:00:41.000Z,95.59
2023-03-06T13:01:41.000Z,94.80
2023-03-06T13:02:41.000Z,94.96
2023-03-06T13:03:41.000Z,95.28
2023-03-06T13:04:41.000Z,94.55
2023-03-06T13:05:41.000Z,93.41
2023-03-06T13:06:41.000Z,93.51
2023-03-06T13:07:41.000Z,93.72
2023-03-06T13:08:41.000Z,92.78
2023-03-06T13:09:41.000Z,92.78
2023-03-06T13:10:41.000Z,92.05
2023-03-06T13:11:41.000Z,92.05
2023-03-06T13:12:41.000Z,92.01
2023-03-06T13:13:41.000Z,91.91
2023-03-06T13:14:41.000Z,92.32
2023-03-06T13:15:41.000Z,92.32
2023-03-06T13:16:41.000Z,91.91
2023-03-06T13:17:41.000Z,91.60
2023-03-06T13:18:41.000Z,92.11
2023-03-06T13:19:41.000Z,92.07
2023-03-06T13:20:41.000Z,91.86
2023-03-06T13:21:41.000Z,90.77
2023-03-06T13:22:41.000Z,91.24
2023-03-06T13:23:41.000Z,91.45
2023-03-06T13:24:41.000Z,91.45
2023-03-06T13:25:41.000Z,91.76
2023-03-06T13:26:41.000Z,91.55
2023-03-06T13:27:41.000Z,91.03
2023-03-06T13:28:41.000Z,90.83
2023-03-06T13:29:41.000Z,91.55
2023-03-06T13:30:41.000Z,91.97
2023-03-06T13:31:41.000Z,91.86
2023-03-06T13:32:41.000Z,92.18
2023-03-06T13:33:41.000Z,92.18
2023-03-06T13:34:41.000Z,92.18
2023-03-06T13:35:41.000Z,92.07
2023-03-06T13:36:41.000Z,92.49
2023-03-06T13:37:41.000Z,92.53
2023-03-06T13:38:41.000Z,92.53
2023-03-06T13:39:41.000Z,92.63
2023-03-06T13:40:41.000Z,93.37
2023-03-06T13:41:41.000Z,93.57
2023-03-06T13:42:41.000Z,93.78
2023-03-06T13:43:41.000Z,93.78
2023-03-06T13:44:41.000Z,94.30
2023-03-06T13:45:41.000Z,94.71
2023-03-06T13:46:41.000Z,94.82
2023-03-06T13:47:41.000Z,94.82
2023-03-06T13:48:41.000Z,94.92
2023-03-06T13:49:41.000Z,95.03
2023-03-06T13:50:41.000Z,94.92
2023-03-06T13:51:41.000Z,94.40
2023-03-06T13:52:41.000Z,93.88
2023-03-06T13:53:41.000Z,93.88
2023-03-06T13:54:41.000Z,94.36
2023-03-06T13:55:41.000Z,93.53
2023-03-06T13:56:40.000Z,93.53
2023-03-06T13:57:40.000Z,93.84
2023-03-06T13:58:40.000Z,94.57
2023-03-06T13:59:40.000Z,94.21
2023-03-06T14:00:40.000Z,94.01
2023-03-06T14:01:40.000Z,93.28
2023-03-06T14:02:40.000Z,93.18
2023-03-06T14:03:40.000Z,93.07
2023-03-06T14:04:40.000Z,92.86
2023-03-06T14:05:40.000Z,91.72
2023-03-06T14:06:40.000Z,91.47
2023-03-06T14:07:40.000Z,91.37
2023-03-06T14:08:40.000Z,90.95
2023-03-06T14:09:40.000Z,89.81
2023-03-06T14:10:40.000Z,89.61
2023-03-06T14:11:40.000Z,89.61
2023-03-06T14:12:40.000Z,90.64
2023-03-06T14:13:40.000Z,89.50
2023-03-06T14:14:40.000Z,89.19
2023-03-06T14:15:40.000Z,89.50
2023-03-06T14:16:40.000Z,88.88
2023-03-06T14:17:40.000Z,89.19
2023-03-06T14:18:40.000Z,89.40
2023-03-06T14:19:40.000Z,88.98
2023-03-06T14:20:40.000Z,89.29
2023-03-06T14:21:40.000Z,88.88
2023-03-06T14:22:40.000Z,88.57
2023-03-06T14:23:40.000Z,88.46
2023-03-06T14:24:40.000Z,88.78
2023-03-06T14:25:40.000Z,88.88
2023-03-06T14:26:40.000Z,88.46
2023-03-06T14:27:40.000Z,88.46
2023-03-06T14:28:40.000Z,88.78
2023-03-06T14:29:40.000Z,89.09
2023-03-06T14:30:40.000Z,88.94
2023-03-06T14:31:40.000Z,88.11
2023-03-06T14:32:40.000Z,87.59
2023-03-06T14:33:40.000Z,88.01
2023-03-06T14:34:40.000Z,87.80